createdAt,value
2023-02-27T00:04:48.165Z,69.70
2023-02-27T00:09:53.291Z,69.90
2023-02-27T00:14:56.779Z,69.40
2023-02-27T00:20:00.323Z,69.20
2023-02-27T00:25:05.488Z,69.20
2023-02-27T00:30:11.348Z,69.20
2023-02-27T00:35:14.883Z,69.20
2023-02-27T00:40:19.927Z,69.00
2023-02-27T00:45:23.427Z,69.10
2023-02-27T00:50:26.933Z,69.30
2023-02-27T00:55:31.853Z,69.20
2023-02-27T01:00:35.445Z,69.00
2023-02-27T01:05:38.964Z,69.00
2023-02-27T01:10:44.015Z,69.20
2023-02-27T01:15:47.517Z,69.10
2023-02-27T01:20:54.022Z,69.10
2023-02-27T01:25:58.937Z,69.10
2023-02-27T01:31:02.593Z,69.20
2023-02-27T01:36:06.768Z,69.00
2023-02-27T01:41:12.088Z,68.90
2023-02-27T01:46:15.561Z,69.00
2023-02-27T01:51:22.278Z,68.60
2023-02-27T01:56:29.609Z,68.60
2023-02-27T02:01:35.263Z,69.20
2023-02-27T02:06:41.414Z,69.20
2023-02-27T02:11:46.829Z,69.10
2023-02-27T02:17:05.324Z,69.10
2023-02-27T02:22:48.890Z,69.00
2023-02-27T02:28:01.510Z,69.00
2023-02-27T02:33:53.010Z,68.60
2023-02-27T02:39:13.972Z,68.80
2023-02-27T02:44:23.714Z,68.60
2023-02-27T02:49:30.788Z,68.60
2023-02-27T02:54:41.188Z,68.20
2023-02-27T02:59:49.151Z,68.30
2023-02-27T03:04:55.382Z,68.20
2023-02-27T03:10:05.362Z,68.40
2023-02-27T03:15:14.207Z,68.20
2023-02-27T03:20:22.135Z,68.00
2023-02-27T03:25:28.345Z,68.00
2023-02-27T03:30:36.327Z,67.80
2023-02-27T03:35:45.167Z,67.80
2023-02-27T03:40:55.490Z,67.60
2023-02-27T03:46:03.228Z,67.70
2023-02-27T03:51:06.932Z,67.40
2023-02-27T03:56:13.953Z,67.70
2023-02-27T04:01:17.882Z,67.30
2023-02-27T04:06:38.631Z,67.30
2023-02-27T04:11:54.985Z,67.00
2023-02-27T04:17:09.904Z,66.90
2023-02-27T04:22:22.406Z,66.90
2023-02-27T04:27:34.757Z,66.70
2023-02-27T04:32:41.065Z,66.90
2023-02-27T04:37:47.744Z,66.40
2023-02-27T04:42:55.161Z,66.50
2023-02-27T04:48:02.871Z,66.60
2023-02-27T04:53:10.336Z,66.40
2023-02-27T04:58:18.044Z,66.10
2023-02-27T05:03:25.683Z,66.10
2023-02-27T05:08:34.993Z,66.10
2023-02-27T05:13:44.012Z,65.90
2023-02-27T05:18:48.176Z,66.00
2023-02-27T05:23:59.586Z,65.80
2023-02-27T05:29:07.996Z,65.60
2023-02-27T05:34:13.811Z,65.50
2023-02-27T05:39:19.156Z,65.40
2023-02-27T05:44:26.995Z,65.50
2023-02-27T05:49:33.871Z,65.30
2023-02-27T05:54:40.403Z,65.20
2023-02-27T05:59:49.569Z,64.90
2023-02-27T06:04:53.130Z,65.10
2023-02-27T06:09:56.594Z,64.90
2023-02-27T06:15:01.432Z,64.50
2023-02-27T06:20:05.433Z,64.70
2023-02-27T06:25:09.549Z,64.60
2023-02-27T06:30:15.479Z,64.50
2023-02-27T06:35:19.209Z,64.40
2023-02-27T06:40:22.747Z,64.10
2023-02-27T06:45:27.676Z,64.20
2023-02-27T06:50:31.255Z,64.10
2023-02-27T06:55:35.057Z,64.20
2023-02-27T07:00:40.019Z,63.90
2023-02-27T07:05:43.754Z,63.70
2023-02-27T07:10:49.302Z,63.90
2023-02-27T07:15:54.321Z,63.60
2023-02-27T07:20:57.875Z,63.50
2023-02-27T07:26:01.339Z,63.50
2023-02-27T07:31:06.697Z,63.50
2023-02-27T07:36:10.198Z,63.40
2023-02-27T07:41:29.282Z,63.40
2023-02-27T07:46:35.167Z,63.30
2023-02-27T07:51:38.687Z,63.20
2023-02-27T07:56:42.150Z,62.90
2023-02-27T08:01:46.975Z,62.80
2023-02-27T08:06:50.423Z,62.90
2023-02-27T08:11:53.830Z,62.70
2023-02-27T08:17:00.388Z,62.60
2023-02-27T08:22:03.873Z,62.60
2023-02-27T08:27:07.657Z,62.40
2023-02-27T08:32:12.576Z,62.60
2023-02-27T08:37:16.057Z,62.50
2023-02-27T08:42:19.523Z,62.40
2023-02-27T08:47:24.446Z,62.30
2023-02-27T08:52:28.274Z,62.50
2023-02-27T08:57:31.802Z,62.40
2023-02-27T09:02:37.273Z,62.50
2023-02-27T09:07:42.426Z,62.50
2023-02-27T09:12:46.084Z,62.20
2023-02-27T09:17:50.943Z,62.50
2023-02-27T09:22:54.415Z,62.40
2023-02-27T09:27:58.131Z,62.20
2023-02-27T09:33:02.985Z,62.30
2023-02-27T09:38:07.336Z,62.00
2023-02-27T09:43:15.745Z,62.30
2023-02-27T09:48:30.214Z,62.40
2023-02-27T09:53:36.201Z,62.60
2023-02-27T09:58:46.782Z,62.60
2023-02-27T10:04:23.544Z,62.30
2023-02-27T10:09:33.887Z,62.60
2023-02-27T10:14:42.772Z,62.60
2023-02-27T10:19:49.040Z,62.70
2023-02-27T10:24:54.850Z,62.40
2023-02-27T10:30:23.530Z,62.60
2023-02-27T10:35:35.831Z,62.20
2023-02-27T10:40:40.940Z,62.80
2023-02-27T10:45:44.995Z,62.50
2023-02-27T10:50:52.411Z,62.40
2023-02-27T10:56:04.918Z,62.50
2023-02-27T11:01:10.356Z,62.70
2023-02-27T11:06:23.629Z,62.60
2023-02-27T11:11:30.064Z,62.70
2023-02-27T11:16:47.164Z,62.90
2023-02-27T11:22:03.420Z,62.90
2023-02-27T11:27:21.958Z,63.30
2023-02-27T11:32:25.729Z,63.10
2023-02-27T11:37:34.453Z,62.60
2023-02-27T11:42:39.264Z,62.90
2023-02-27T11:47:44.398Z,62.70
2023-02-27T11:52:53.296Z,63.20
2023-02-27T11:58:02.456Z,63.10
2023-02-27T12:03:11.869Z,63.60
2023-02-27T12:08:19.912Z,63.10
2023-02-27T12:13:26.441Z,63.30
2023-02-27T12:18:32.092Z,63.50
2023-02-27T12:23:40.640Z,63.40
2023-02-27T12:28:51.486Z,63.90
2023-02-27T12:34:00.645Z,63.40
2023-02-27T12:39:05.754Z,63.70
2023-02-27T12:44:21.747Z,63.10
2023-02-27T12:49:32.418Z,63.70
2023-02-27T12:54:46.514Z,64.20
2023-02-27T12:59:56.829Z,63.80
2023-02-27T13:05:06.718Z,63.70
2023-02-27T13:10:16.834Z,63.90
2023-02-27T13:15:25.160Z,64.00
2023-02-27T13:20:34.421Z,64.30
2023-02-27T13:25:40.429Z,64.00
2023-02-27T13:30:46.828Z,64.30
2023-02-27T13:35:56.297Z,64.50
2023-02-27T13:41:39.590Z,64.30
2023-02-27T13:46:43.099Z,64.50
2023-02-27T13:51:47.825Z,64.80
2023-02-27T13:57:08.553Z,64.70
2023-02-27T14:02:31.280Z,64.70
2023-02-27T14:07:48.870Z,65.00
2023-02-27T14:12:53.847Z,64.60
2023-02-27T14:18:11.476Z,65.00
2023-02-27T14:23:21.982Z,65.20
2023-02-27T14:28:28.986Z,65.30
2023-02-27T14:33:40.724Z,65.20
2023-02-27T14:38:44.330Z,65.10
2023-02-27T14:43:56.109Z,64.90
2023-02-27T14:49:02.116Z,64.80
2023-02-27T14:54:07.846Z,64.80
2023-02-27T14:59:26.273Z,64.90
2023-02-27T15:04:32.157Z,64.90
2023-02-27T15:09:38.211Z,65.10
2023-02-27T15:14:43.451Z,64.60
2023-02-27T15:19:48.522Z,64.80
2023-02-27T15:24:52.008Z,64.90
2023-02-27T15:29:58.573Z,65.00
2023-02-27T15:35:05.072Z,65.00
2023-02-27T15:40:17.009Z,65.10
2023-02-27T15:45:23.883Z,64.90
2023-02-27T15:50:29.434Z,65.20
2023-02-27T15:55:35.906Z,65.00
2023-02-27T16:00:40.791Z,65.00
2023-02-27T16:05:44.379Z,65.20
2023-02-27T16:10:48.334Z,64.90
2023-02-27T16:16:03.559Z,65.20
2023-02-27T16:21:12.748Z,65.30
2023-02-27T16:26:24.205Z,65.20
2023-02-27T16:31:31.284Z,65.40
2023-02-27T16:36:34.807Z,65.20
2023-02-27T16:41:38.277Z,65.30
2023-02-27T16:46:43.216Z,65.30
2023-02-27T16:51:46.673Z,65.40
2023-02-27T16:56:51.159Z,65.10
2023-02-27T17:01:56.101Z,65.60
2023-02-27T17:07:01.604Z,65.40
2023-02-27T17:12:05.259Z,65.80
2023-02-27T17:17:11.658Z,65.40
2023-02-27T17:22:15.441Z,65.60
2023-02-27T17:27:18.951Z,65.60
2023-02-27T17:32:23.874Z,65.60
2023-02-27T17:37:27.934Z,65.60
2023-02-27T17:42:31.390Z,65.70
2023-02-27T17:47:36.614Z,65.30
2023-02-27T17:52:40.636Z,65.70
2023-02-27T17:57:44.171Z,65.80
2023-02-27T18:02:49.378Z,65.50
2023-02-27T18:07:55.122Z,65.80
2023-02-27T18:12:58.942Z,65.70
2023-02-27T18:18:03.847Z,65.80
2023-02-27T18:23:07.540Z,65.70
2023-02-27T18:28:12.131Z,65.90
2023-02-27T18:33:17.007Z,66.00
2023-02-27T18:38:20.665Z,65.90
2023-02-27T18:43:24.168Z,65.70
2023-02-27T18:48:29.271Z,65.70
2023-02-27T18:53:32.814Z,65.80
2023-02-27T18:58:36.784Z,65.90
2023-02-27T19:03:41.660Z,66.10
2023-02-27T19:08:45.207Z,65.90
2023-02-27T19:13:48.662Z,65.70
2023-02-27T19:18:55.242Z,65.90
2023-02-27T19:23:58.722Z,66.20
2023-02-27T19:29:02.676Z,66.00
2023-02-27T19:34:07.553Z,66.40
2023-02-27T19:39:12.124Z,66.20
2023-02-27T19:44:15.639Z,66.10
2023-02-27T19:49:20.616Z,66.20
2023-02-27T19:54:24.239Z,66.00
2023-02-27T19:59:27.700Z,66.30
2023-02-27T20:04:32.672Z,66.00
2023-02-27T20:09:36.201Z,66.10
2023-02-27T20:14:40.308Z,66.00
2023-02-27T20:19:45.174Z,65.90
2023-02-27T20:24:48.617Z,66.00
2023-02-27T20:29:53.773Z,66.10
2023-02-27T20:34:58.615Z,66.10
2023-02-27T20:40:02.214Z,66.20
2023-02-27T20:45:06.625Z,66.00
2023-02-27T20:50:13.155Z,66.00
2023-02-27T20:55:16.699Z,65.90
2023-02-27T21:00:21.409Z,66.00
2023-02-27T21:05:26.282Z,66.10
2023-02-27T21:10:29.838Z,66.10
2023-02-27T21:15:36.069Z,66.20
2023-02-27T21:20:42.419Z,66.10
2023-02-27T21:25:45.942Z,66.30
2023-02-27T21:30:54.813Z,65.90
2023-02-27T21:35:59.845Z,66.00
2023-02-27T21:41:07.141Z,66.10
2023-02-27T21:46:12.516Z,66.10
2023-02-27T21:51:26.713Z,66.20
2023-02-27T21:56:40.762Z,66.10
2023-02-27T22:01:47.530Z,66.10
2023-02-27T22:06:53.509Z,66.00
2023-02-27T22:11:56.972Z,66.00
2023-02-27T22:17:00.549Z,65.80
2023-02-27T22:22:05.396Z,65.90
2023-02-27T22:27:09.471Z,65.70
2023-02-27T22:32:12.970Z,66.10
2023-02-27T22:37:20.001Z,65.90
2023-02-27T22:42:23.842Z,65.70
2023-02-27T22:47:27.327Z,65.50
2023-02-27T22:52:32.210Z,65.90
2023-02-27T22:57:35.695Z,65.90
2023-02-27T23:02:42.503Z,65.70
2023-02-27T23:07:47.420Z,65.70
2023-02-27T23:12:50.858Z,65.80
2023-02-27T23:17:58.419Z,65.70
2023-02-27T23:23:05.580Z,65.80
2023-02-27T23:28:09.055Z,65.60
2023-02-27T23:33:12.522Z,65.60
2023-02-27T23:38:17.410Z,65.20
2023-02-27T23:43:21.046Z,65.50
2023-02-27T23:48:24.546Z,65.70
2023-02-27T23:53:29.385Z,65.50
2023-02-27T23:58:32.900Z,65.60
